sensor_id;sensor_type;location;lat;lon;timestamp;P1;durP1;ratioP1;P2;durP2;ratioP2
52942;SDS011;38809;53.300;6.614;2022-11-20T00:01:13;13.70;;;9.18;;
52942;SDS011;38809;53.300;6.614;2022-11-20T00:03:41;12.75;;;9.23;;
52942;SDS011;38809;53.300;6.614;2022-11-20T00:06:08;15.15;;;9.60;;
52942;SDS011;38809;53.300;6.614;2022-11-20T00:08:36;15.02;;;9.13;;
52942;SDS011;38809;53.300;6.614;2022-11-20T00:11:03;14.32;;;9.45;;
52942;SDS011;38809;53.300;6.614;2022-11-20T00:13:29;14.77;;;9.13;;
52942;SDS011;38809;53.300;6.614;2022-11-20T00:15:58;14.97;;;8.97;;
52942;SDS011;38809;53.300;6.614;2022-11-20T00:18:25;14.27;;;9.18;;
52942;SDS011;38809;53.300;6.614;2022-11-20T00:23:17;14.10;;;8.55;;
52942;SDS011;38809;53.300;6.614;2022-11-20T00:25:43;15.23;;;8.83;;
52942;SDS011;38809;53.300;6.614;2022-11-20T00:28:08;13.67;;;8.70;;
52942;SDS011;38809;53.300;6.614;2022-11-20T00:30:34;12.90;;;8.83;;
52942;SDS011;38809;53.300;6.614;2022-11-20T00:33:00;13.70;;;9.03;;
52942;SDS011;38809;53.300;6.614;2022-11-20T00:35:25;15.40;;;9.07;;
52942;SDS011;38809;53.300;6.614;2022-11-20T00:37:51;13.07;;;8.80;;
52942;SDS011;38809;53.300;6.614;2022-11-20T00:40:17;13.83;;;8.30;;
52942;SDS011;38809;53.300;6.614;2022-11-20T00:42:42;15.03;;;8.50;;
52942;SDS011;38809;53.300;6.614;2022-11-20T00:45:08;16.67;;;9.07;;
52942;SDS011;38809;53.300;6.614;2022-11-20T00:47:34;15.77;;;9.17;;
52942;SDS011;38809;53.300;6.614;2022-11-20T00:49:59;15.00;;;8.30;;
52942;SDS011;38809;53.300;6.614;2022-11-20T00:52:25;16.73;;;8.97;;
52942;SDS011;38809;53.300;6.614;2022-11-20T00:54:51;15.03;;;8.97;;
52942;SDS011;38809;53.300;6.614;2022-11-20T00:57:16;15.10;;;9.77;;
52942;SDS011;38809;53.300;6.614;2022-11-20T00:59:42;13.50;;;8.47;;
52942;SDS011;38809;53.300;6.614;2022-11-20T01:02:07;12.80;;;8.67;;
52942;SDS011;38809;53.300;6.614;2022-11-20T01:04:33;12.50;;;7.90;;
52942;SDS011;38809;53.300;6.614;2022-11-20T01:06:59;12.50;;;8.90;;
52942;SDS011;38809;53.300;6.614;2022-11-20T01:09:24;12.27;;;8.50;;
52942;SDS011;38809;53.300;6.614;2022-11-20T01:11:50;13.80;;;8.57;;
52942;SDS011;38809;53.300;6.614;2022-11-20T01:14:17;16.23;;;9.23;;
52942;SDS011;38809;53.300;6.614;2022-11-20T01:16:45;14.23;;;9.02;;
52942;SDS011;38809;53.300;6.614;2022-11-20T01:19:20;13.77;;;8.68;;
52942;SDS011;38809;53.300;6.614;2022-11-20T01:21:48;15.43;;;9.18;;
52942;SDS011;38809;53.300;6.614;2022-11-20T01:24:17;14.65;;;8.50;;
52942;SDS011;38809;53.300;6.614;2022-11-20T01:26:44;13.27;;;8.88;;
52942;SDS011;38809;53.300;6.614;2022-11-20T01:29:15;15.68;;;8.70;;
52942;SDS011;38809;53.300;6.614;2022-11-20T01:31:46;15.60;;;8.88;;
52942;SDS011;38809;53.300;6.614;2022-11-20T01:34:13;15.20;;;8.95;;
52942;SDS011;38809;53.300;6.614;2022-11-20T01:36:41;13.32;;;8.88;;
52942;SDS011;38809;53.300;6.614;2022-11-20T01:39:10;14.38;;;8.98;;
52942;SDS011;38809;53.300;6.614;2022-11-20T01:41:37;12.30;;;8.70;;
52942;SDS011;38809;53.300;6.614;2022-11-20T01:44:39;14.70;;;9.23;;
52942;SDS011;38809;53.300;6.614;2022-11-20T01:47:31;13.55;;;8.55;;
52942;SDS011;38809;53.300;6.614;2022-11-20T01:52:51;13.60;;;8.60;;
52942;SDS011;38809;53.300;6.614;2022-11-20T01:55:25;14.38;;;8.90;;
52942;SDS011;38809;53.300;6.614;2022-11-20T01:57:58;14.27;;;8.80;;
52942;SDS011;38809;53.300;6.614;2022-11-20T02:02:52;15.93;;;8.98;;
52942;SDS011;38809;53.300;6.614;2022-11-20T02:07:50;13.75;;;8.80;;
52942;SDS011;38809;53.300;6.614;2022-11-20T02:10:17;13.73;;;8.50;;
52942;SDS011;38809;53.300;6.614;2022-11-20T02:12:43;14.57;;;9.05;;
52942;SDS011;38809;53.300;6.614;2022-11-20T02:15:28;14.85;;;9.38;;
52942;SDS011;38809;53.300;6.614;2022-11-20T02:17:54;13.00;;;8.43;;
52942;SDS011;38809;53.300;6.614;2022-11-20T02:20:19;12.80;;;8.67;;
52942;SDS011;38809;53.300;6.614;2022-11-20T02:22:50;13.50;;;8.55;;
52942;SDS011;38809;53.300;6.614;2022-11-20T02:25:29;14.80;;;9.38;;
52942;SDS011;38809;53.300;6.614;2022-11-20T02:27:57;16.58;;;9.05;;
52942;SDS011;38809;53.300;6.614;2022-11-20T02:30:23;13.45;;;8.40;;
52942;SDS011;38809;53.300;6.614;2022-11-20T02:32:49;12.95;;;8.48;;
52942;SDS011;38809;53.300;6.614;2022-11-20T02:37:43;15.23;;;9.40;;
52942;SDS011;38809;53.300;6.614;2022-11-20T02:40:12;13.48;;;8.38;;
52942;SDS011;38809;53.300;6.614;2022-11-20T02:42:37;16.40;;;9.55;;
52942;SDS011;38809;53.300;6.614;2022-11-20T02:45:04;13.82;;;8.80;;
52942;SDS011;38809;53.300;6.614;2022-11-20T02:47:30;13.95;;;8.82;;
52942;SDS011;38809;53.300;6.614;2022-11-20T02:49:56;12.05;;;7.90;;
52942;SDS011;38809;53.300;6.614;2022-11-20T02:52:23;13.93;;;8.98;;
52942;SDS011;38809;53.300;6.614;2022-11-20T02:54:49;15.32;;;9.32;;
52942;SDS011;38809;53.300;6.614;2022-11-20T02:57:14;15.17;;;9.10;;
52942;SDS011;38809;53.300;6.614;2022-11-20T02:59:40;12.40;;;8.27;;
52942;SDS011;38809;53.300;6.614;2022-11-20T03:02:06;15.10;;;9.33;;
52942;SDS011;38809;53.300;6.614;2022-11-20T03:04:31;13.73;;;8.88;;
52942;SDS011;38809;53.300;6.614;2022-11-20T03:06:57;14.35;;;9.48;;
52942;SDS011;38809;53.300;6.614;2022-11-20T03:09:23;14.60;;;9.67;;
52942;SDS011;38809;53.300;6.614;2022-11-20T03:11:48;15.73;;;9.50;;
52942;SDS011;38809;53.300;6.614;2022-11-20T03:14:14;14.73;;;9.77;;
52942;SDS011;38809;53.300;6.614;2022-11-20T03:16:40;14.07;;;10.50;;
52942;SDS011;38809;53.300;6.614;2022-11-20T03:19:05;17.23;;;10.27;;
52942;SDS011;38809;53.300;6.614;2022-11-20T03:21:34;15.93;;;9.77;;
52942;SDS011;38809;53.300;6.614;2022-11-20T03:24:00;16.13;;;10.05;;
52942;SDS011;38809;53.300;6.614;2022-11-20T03:26:26;16.27;;;9.55;;
52942;SDS011;38809;53.300;6.614;2022-11-20T03:28:53;15.38;;;9.75;;
52942;SDS011;38809;53.300;6.614;2022-11-20T03:31:22;15.75;;;9.52;;
52942;SDS011;38809;53.300;6.614;2022-11-20T03:33:50;15.43;;;9.77;;
52942;SDS011;38809;53.300;6.614;2022-11-20T03:36:17;14.27;;;9.23;;
52942;SDS011;38809;53.300;6.614;2022-11-20T03:38:44;16.67;;;9.88;;
52942;SDS011;38809;53.300;6.614;2022-11-20T03:41:15;16.17;;;10.05;;
52942;SDS011;38809;53.300;6.614;2022-11-20T03:43:49;15.32;;;9.95;;
52942;SDS011;38809;53.300;6.614;2022-11-20T03:46:16;15.43;;;9.52;;
52942;SDS011;38809;53.300;6.614;2022-11-20T03:48:42;15.07;;;9.60;;
52942;SDS011;38809;53.300;6.614;2022-11-20T03:53:34;16.30;;;8.73;;
52942;SDS011;38809;53.300;6.614;2022-11-20T03:55:59;14.97;;;9.63;;
52942;SDS011;38809;53.300;6.614;2022-11-20T03:58:25;14.77;;;9.20;;
52942;SDS011;38809;53.300;6.614;2022-11-20T04:00:51;13.38;;;9.15;;
52942;SDS011;38809;53.300;6.614;2022-11-20T04:03:16;15.83;;;9.07;;
52942;SDS011;38809;53.300;6.614;2022-11-20T04:05:42;15.03;;;9.50;;
52942;SDS011;38809;53.300;6.614;2022-11-20T04:08:08;14.73;;;9.27;;
52942;SDS011;38809;53.300;6.614;2022-11-20T04:10:33;13.67;;;8.50;;
52942;SDS011;38809;53.300;6.614;2022-11-20T04:12:59;15.75;;;10.15;;
52942;SDS011;38809;53.300;6.614;2022-11-20T04:15:25;15.35;;;9.32;;
52942;SDS011;38809;53.300;6.614;2022-11-20T04:17:50;17.27;;;9.20;;
52942;SDS011;38809;53.300;6.614;2022-11-20T04:20:16;13.37;;;8.93;;
52942;SDS011;38809;53.300;6.614;2022-11-20T04:22:42;13.47;;;8.47;;
52942;SDS011;38809;53.300;6.614;2022-11-20T04:25:07;13.73;;;8.53;;
52942;SDS011;38809;53.300;6.614;2022-11-20T04:27:33;13.85;;;8.40;;
52942;SDS011;38809;53.300;6.614;2022-11-20T04:29:59;11.67;;;8.00;;
52942;SDS011;38809;53.300;6.614;2022-11-20T04:32:24;15.47;;;9.10;;
52942;SDS011;38809;53.300;6.614;2022-11-20T04:34:50;14.93;;;9.23;;
52942;SDS011;38809;53.300;6.614;2022-11-20T04:37:16;13.40;;;8.43;;
52942;SDS011;38809;53.300;6.614;2022-11-20T04:39:41;17.27;;;10.07;;
52942;SDS011;38809;53.300;6.614;2022-11-20T04:42:09;13.73;;;9.15;;
52942;SDS011;38809;53.300;6.614;2022-11-20T04:44:53;14.65;;;8.88;;
52942;SDS011;38809;53.300;6.614;2022-11-20T04:47:19;13.40;;;9.10;;
52942;SDS011;38809;53.300;6.614;2022-11-20T04:49:45;15.45;;;9.40;;
52942;SDS011;38809;53.300;6.614;2022-11-20T04:52:11;16.02;;;8.98;;
52942;SDS011;38809;53.300;6.614;2022-11-20T04:54:37;14.17;;;8.03;;
52942;SDS011;38809;53.300;6.614;2022-11-20T04:57:02;14.60;;;8.97;;
52942;SDS011;38809;53.300;6.614;2022-11-20T04:59:28;13.87;;;8.70;;
52942;SDS011;38809;53.300;6.614;2022-11-20T05:01:54;13.60;;;9.40;;
52942;SDS011;38809;53.300;6.614;2022-11-20T05:04:19;13.20;;;8.27;;
52942;SDS011;38809;53.300;6.614;2022-11-20T05:06:45;13.80;;;8.90;;
52942;SDS011;38809;53.300;6.614;2022-11-20T05:09:11;15.02;;;9.50;;
52942;SDS011;38809;53.300;6.614;2022-11-20T05:14:03;13.27;;;8.23;;
52942;SDS011;38809;53.300;6.614;2022-11-20T05:16:29;13.18;;;7.82;;
52942;SDS011;38809;53.300;6.614;2022-11-20T05:18:55;13.37;;;8.67;;
52942;SDS011;38809;53.300;6.614;2022-11-20T05:21:20;11.13;;;7.53;;
52942;SDS011;38809;53.300;6.614;2022-11-20T05:23:47;14.02;;;8.15;;
52942;SDS011;38809;53.300;6.614;2022-11-20T05:26:14;14.27;;;8.47;;
52942;SDS011;38809;53.300;6.614;2022-11-20T05:28:41;12.98;;;7.68;;
52942;SDS011;38809;53.300;6.614;2022-11-20T05:31:07;13.07;;;7.80;;
52942;SDS011;38809;53.300;6.614;2022-11-20T05:33:35;13.32;;;8.27;;
52942;SDS011;38809;53.300;6.614;2022-11-20T05:36:02;13.70;;;7.70;;
52942;SDS011;38809;53.300;6.614;2022-11-20T05:38:28;13.18;;;8.05;;
52942;SDS011;38809;53.300;6.614;2022-11-20T05:40:54;12.33;;;8.87;;
52942;SDS011;38809;53.300;6.614;2022-11-20T05:43:20;12.77;;;7.77;;
52942;SDS011;38809;53.300;6.614;2022-11-20T05:45:52;11.97;;;7.90;;
52942;SDS011;38809;53.300;6.614;2022-11-20T05:48:19;11.57;;;7.60;;
52942;SDS011;38809;53.300;6.614;2022-11-20T05:50:44;12.73;;;7.87;;
52942;SDS011;38809;53.300;6.614;2022-11-20T05:53:10;11.17;;;7.90;;
52942;SDS011;38809;53.300;6.614;2022-11-20T05:55:35;11.43;;;7.33;;
52942;SDS011;38809;53.300;6.614;2022-11-20T05:58:01;12.10;;;7.50;;
52942;SDS011;38809;53.300;6.614;2022-11-20T06:00:27;13.23;;;7.40;;
52942;SDS011;38809;53.300;6.614;2022-11-20T06:02:52;14.40;;;8.30;;
52942;SDS011;38809;53.300;6.614;2022-11-20T06:05:18;13.70;;;8.37;;
52942;SDS011;38809;53.300;6.614;2022-11-20T06:07:44;13.93;;;8.10;;
52942;SDS011;38809;53.300;6.614;2022-11-20T06:10:09;13.17;;;8.07;;
52942;SDS011;38809;53.300;6.614;2022-11-20T06:12:35;12.57;;;7.38;;
52942;SDS011;38809;53.300;6.614;2022-11-20T06:15:01;14.27;;;7.90;;
52942;SDS011;38809;53.300;6.614;2022-11-20T06:17:27;11.05;;;6.93;;
52942;SDS011;38809;53.300;6.614;2022-11-20T06:19:53;11.67;;;7.77;;
52942;SDS011;38809;53.300;6.614;2022-11-20T06:22:19;11.50;;;7.10;;
52942;SDS011;38809;53.300;6.614;2022-11-20T06:24:44;13.20;;;7.63;;
52942;SDS011;38809;53.300;6.614;2022-11-20T06:27:10;12.30;;;7.33;;
52942;SDS011;38809;53.300;6.614;2022-11-20T06:29:35;10.80;;;7.33;;
52942;SDS011;38809;53.300;6.614;2022-11-20T06:32:01;10.23;;;6.70;;
52942;SDS011;38809;53.300;6.614;2022-11-20T06:34:27;12.37;;;8.20;;
52942;SDS011;38809;53.300;6.614;2022-11-20T06:36:52;11.90;;;8.00;;
52942;SDS011;38809;53.300;6.614;2022-11-20T06:39:18;11.43;;;7.50;;
52942;SDS011;38809;53.300;6.614;2022-11-20T06:41:44;11.90;;;7.13;;
52942;SDS011;38809;53.300;6.614;2022-11-20T06:44:09;12.20;;;7.73;;
52942;SDS011;38809;53.300;6.614;2022-11-20T06:46:35;13.87;;;8.53;;
52942;SDS011;38809;53.300;6.614;2022-11-20T06:49:01;11.23;;;7.47;;
52942;SDS011;38809;53.300;6.614;2022-11-20T06:51:26;11.33;;;7.70;;
52942;SDS011;38809;53.300;6.614;2022-11-20T06:53:52;13.73;;;8.17;;
52942;SDS011;38809;53.300;6.614;2022-11-20T06:56:18;12.25;;;7.53;;
52942;SDS011;38809;53.300;6.614;2022-11-20T06:58:44;12.83;;;8.00;;
52942;SDS011;38809;53.300;6.614;2022-11-20T07:01:10;11.10;;;7.33;;
52942;SDS011;38809;53.300;6.614;2022-11-20T07:03:37;11.73;;;7.07;;
52942;SDS011;38809;53.300;6.614;2022-11-20T07:06:04;10.95;;;6.63;;
52942;SDS011;38809;53.300;6.614;2022-11-20T07:08:30;12.25;;;6.97;;
52942;SDS011;38809;53.300;6.614;2022-11-20T07:10:57;10.65;;;7.05;;
52942;SDS011;38809;53.300;6.614;2022-11-20T07:13:27;10.07;;;6.55;;
52942;SDS011;38809;53.300;6.614;2022-11-20T07:15:53;11.13;;;7.20;;
52942;SDS011;38809;53.300;6.614;2022-11-20T07:18:19;11.40;;;6.75;;
52942;SDS011;38809;53.300;6.614;2022-11-20T07:20:45;11.50;;;6.77;;
52942;SDS011;38809;53.300;6.614;2022-11-20T07:23:10;11.23;;;7.37;;
52942;SDS011;38809;53.300;6.614;2022-11-20T07:25:36;9.97;;;6.77;;
52942;SDS011;38809;53.300;6.614;2022-11-20T07:28:02;12.00;;;6.93;;
52942;SDS011;38809;53.300;6.614;2022-11-20T07:32:55;10.43;;;7.05;;
52942;SDS011;38809;53.300;6.614;2022-11-20T07:35:22;10.50;;;6.72;;
52942;SDS011;38809;53.300;6.614;2022-11-20T07:37:48;11.75;;;6.82;;
52942;SDS011;38809;53.300;6.614;2022-11-20T07:40:14;10.90;;;6.23;;
52942;SDS011;38809;53.300;6.614;2022-11-20T07:42:51;10.93;;;6.65;;
52942;SDS011;38809;53.300;6.614;2022-11-20T07:45:21;11.57;;;7.47;;
52942;SDS011;38809;53.300;6.614;2022-11-20T07:47:48;11.35;;;7.20;;
52942;SDS011;38809;53.300;6.614;2022-11-20T07:50:14;11.20;;;7.10;;
52942;SDS011;38809;53.300;6.614;2022-11-20T07:52:40;11.07;;;7.43;;
52942;SDS011;38809;53.300;6.614;2022-11-20T07:55:06;10.83;;;7.30;;
52942;SDS011;38809;53.300;6.614;2022-11-20T07:57:32;11.48;;;7.38;;
52942;SDS011;38809;53.300;6.614;2022-11-20T07:59:58;11.33;;;6.90;;
52942;SDS011;38809;53.300;6.614;2022-11-20T08:02:24;10.43;;;6.65;;
52942;SDS011;38809;53.300;6.614;2022-11-20T08:04:49;11.37;;;7.10;;
52942;SDS011;38809;53.300;6.614;2022-11-20T08:07:15;10.40;;;7.00;;
52942;SDS011;38809;53.300;6.614;2022-11-20T08:09:41;11.55;;;7.50;;
52942;SDS011;38809;53.300;6.614;2022-11-20T08:12:07;9.77;;;6.37;;
52942;SDS011;38809;53.300;6.614;2022-11-20T08:14:51;12.50;;;7.50;;
52942;SDS011;38809;53.300;6.614;2022-11-20T08:17:16;10.83;;;7.13;;
52942;SDS011;38809;53.300;6.614;2022-11-20T08:19:42;11.43;;;7.30;;
52942;SDS011;38809;53.300;6.614;2022-11-20T08:22:08;11.67;;;7.07;;
52942;SDS011;38809;53.300;6.614;2022-11-20T08:24:33;10.90;;;6.77;;
52942;SDS011;38809;53.300;6.614;2022-11-20T08:26:59;10.40;;;7.40;;
52942;SDS011;38809;53.300;6.614;2022-11-20T08:29:26;10.88;;;7.13;;
52942;SDS011;38809;53.300;6.614;2022-11-20T08:34:17;11.13;;;7.38;;
52942;SDS011;38809;53.300;6.614;2022-11-20T08:36:43;12.37;;;7.00;;
52942;SDS011;38809;53.300;6.614;2022-11-20T08:39:11;11.70;;;7.67;;
52942;SDS011;38809;53.300;6.614;2022-11-20T08:41:37;13.23;;;7.68;;
52942;SDS011;38809;53.300;6.614;2022-11-20T08:44:04;10.37;;;6.80;;
52942;SDS011;38809;53.300;6.614;2022-11-20T08:49:07;10.65;;;7.10;;
52942;SDS011;38809;53.300;6.614;2022-11-20T08:51:34;11.68;;;7.07;;
52942;SDS011;38809;53.300;6.614;2022-11-20T08:54:01;12.15;;;8.00;;
52942;SDS011;38809;53.300;6.614;2022-11-20T08:56:27;12.10;;;7.90;;
52942;SDS011;38809;53.300;6.614;2022-11-20T08:58:53;10.85;;;6.65;;
52942;SDS011;38809;53.300;6.614;2022-11-20T09:01:19;11.27;;;7.07;;
52942;SDS011;38809;53.300;6.614;2022-11-20T09:03:46;11.05;;;6.88;;
52942;SDS011;38809;53.300;6.614;2022-11-20T09:06:12;10.43;;;6.95;;
52942;SDS011;38809;53.300;6.614;2022-11-20T09:11:04;10.85;;;6.32;;
52942;SDS011;38809;53.300;6.614;2022-11-20T09:13:30;11.00;;;7.18;;
52942;SDS011;38809;53.300;6.614;2022-11-20T09:18:24;10.60;;;7.13;;
52942;SDS011;38809;53.300;6.614;2022-11-20T09:20:51;10.48;;;7.10;;
52942;SDS011;38809;53.300;6.614;2022-11-20T09:23:17;12.17;;;7.60;;
52942;SDS011;38809;53.300;6.614;2022-11-20T09:25:43;11.98;;;7.22;;
52942;SDS011;38809;53.300;6.614;2022-11-20T09:28:09;11.65;;;7.88;;
52942;SDS011;38809;53.300;6.614;2022-11-20T09:30:34;12.25;;;7.80;;
52942;SDS011;38809;53.300;6.614;2022-11-20T09:33:00;13.65;;;8.82;;
52942;SDS011;38809;53.300;6.614;2022-11-20T09:35:26;11.00;;;7.30;;
52942;SDS011;38809;53.300;6.614;2022-11-20T09:37:52;12.43;;;7.72;;
52942;SDS011;38809;53.300;6.614;2022-11-20T09:40:21;13.07;;;7.60;;
52942;SDS011;38809;53.300;6.614;2022-11-20T09:42:52;11.60;;;7.80;;
52942;SDS011;38809;53.300;6.614;2022-11-20T09:45:30;11.50;;;7.30;;
52942;SDS011;38809;53.300;6.614;2022-11-20T09:56:40;13.23;;;8.73;;
52942;SDS011;38809;53.300;6.614;2022-11-20T09:59:18;12.63;;;8.10;;
52942;SDS011;38809;53.300;6.614;2022-11-20T10:01:51;13.15;;;8.18;;
52942;SDS011;38809;53.300;6.614;2022-11-20T10:04:19;11.95;;;8.10;;
52942;SDS011;38809;53.300;6.614;2022-11-20T10:06:56;13.70;;;8.57;;
52942;SDS011;38809;53.300;6.614;2022-11-20T10:09:31;13.65;;;8.65;;
52942;SDS011;38809;53.300;6.614;2022-11-20T10:12:14;13.55;;;9.15;;
52942;SDS011;38809;53.300;6.614;2022-11-20T10:18:18;14.30;;;8.30;;
52942;SDS011;38809;53.300;6.614;2022-11-20T10:20:49;12.93;;;7.95;;
52942;SDS011;38809;53.300;6.614;2022-11-20T10:23:26;12.98;;;7.80;;
52942;SDS011;38809;53.300;6.614;2022-11-20T10:29:00;12.82;;;8.05;;
52942;SDS011;38809;53.300;6.614;2022-11-20T10:31:40;13.73;;;8.13;;
52942;SDS011;38809;53.300;6.614;2022-11-20T10:37:26;14.15;;;8.32;;
52942;SDS011;38809;53.300;6.614;2022-11-20T10:39:56;11.30;;;7.95;;
52942;SDS011;38809;53.300;6.614;2022-11-20T10:42:45;12.50;;;7.88;;
52942;SDS011;38809;53.300;6.614;2022-11-20T10:47:56;12.50;;;7.78;;
52942;SDS011;38809;53.300;6.614;2022-11-20T11:01:21;15.00;;;7.53;;
52942;SDS011;38809;53.300;6.614;2022-11-20T11:03:48;12.75;;;7.65;;
52942;SDS011;38809;53.300;6.614;2022-11-20T11:06:34;11.40;;;7.63;;
52942;SDS011;38809;53.300;6.614;2022-11-20T11:09:09;10.43;;;7.32;;
52942;SDS011;38809;53.300;6.614;2022-11-20T11:11:40;10.35;;;6.95;;
52942;SDS011;38809;53.300;6.614;2022-11-20T11:14:06;12.73;;;6.90;;
52942;SDS011;38809;53.300;6.614;2022-11-20T11:16:35;9.77;;;6.80;;
52942;SDS011;38809;53.300;6.614;2022-11-20T11:19:16;11.32;;;7.25;;
52942;SDS011;38809;53.300;6.614;2022-11-20T11:21:49;10.77;;;7.23;;
52942;SDS011;38809;53.300;6.614;2022-11-20T11:24:25;10.30;;;6.97;;
52942;SDS011;38809;53.300;6.614;2022-11-20T11:26:56;9.60;;;6.60;;
52942;SDS011;38809;53.300;6.614;2022-11-20T11:29:22;9.75;;;6.72;;
52942;SDS011;38809;53.300;6.614;2022-11-20T11:31:48;10.70;;;7.68;;
52942;SDS011;38809;53.300;6.614;2022-11-20T11:34:15;9.53;;;6.50;;
52942;SDS011;38809;53.300;6.614;2022-11-20T11:36:42;10.75;;;6.75;;
52942;SDS011;38809;53.300;6.614;2022-11-20T11:39:19;10.57;;;6.90;;
52942;SDS011;38809;53.300;6.614;2022-11-20T11:41:46;9.48;;;6.28;;
52942;SDS011;38809;53.300;6.614;2022-11-20T11:44:17;11.95;;;7.13;;
52942;SDS011;38809;53.300;6.614;2022-11-20T11:47:03;9.70;;;6.50;;
52942;SDS011;38809;53.300;6.614;2022-11-20T11:49:33;9.20;;;5.65;;
52942;SDS011;38809;53.300;6.614;2022-11-20T11:54:55;9.95;;;6.72;;
52942;SDS011;38809;53.300;6.614;2022-11-20T11:57:24;11.20;;;7.32;;
52942;SDS011;38809;53.300;6.614;2022-11-20T12:10:44;10.15;;;7.18;;
52942;SDS011;38809;53.300;6.614;2022-11-20T12:16:04;11.80;;;8.48;;
52942;SDS011;38809;53.300;6.614;2022-11-20T12:18:30;10.40;;;7.22;;
52942;SDS011;38809;53.300;6.614;2022-11-20T12:37:37;9.63;;;6.47;;
52942;SDS011;38809;53.300;6.614;2022-11-20T12:56:52;6.38;;;4.57;;
52942;SDS011;38809;53.300;6.614;2022-11-20T13:08:22;7.32;;;4.63;;
52942;SDS011;38809;53.300;6.614;2022-11-20T13:19:03;7.35;;;4.50;;
52942;SDS011;38809;53.300;6.614;2022-11-20T13:21:35;5.90;;;4.05;;
52942;SDS011;38809;53.300;6.614;2022-11-20T13:24:06;7.32;;;4.50;;
52942;SDS011;38809;53.300;6.614;2022-11-20T13:26:45;7.28;;;4.97;;
52942;SDS011;38809;53.300;6.614;2022-11-20T13:31:43;5.72;;;3.72;;
52942;SDS011;38809;53.300;6.614;2022-11-20T13:34:22;5.72;;;4.05;;
52942;SDS011;38809;53.300;6.614;2022-11-20T13:36:50;4.45;;;2.97;;
52942;SDS011;38809;53.300;6.614;2022-11-20T13:39:28;5.22;;;3.45;;
52942;SDS011;38809;53.300;6.614;2022-11-20T13:44:39;5.22;;;3.50;;
52942;SDS011;38809;53.300;6.614;2022-11-20T13:47:22;5.10;;;3.45;;
52942;SDS011;38809;53.300;6.614;2022-11-20T13:49:49;4.68;;;3.15;;
52942;SDS011;38809;53.300;6.614;2022-11-20T13:58:04;5.13;;;3.70;;
52942;SDS011;38809;53.300;6.614;2022-11-20T14:00:31;5.72;;;3.70;;
52942;SDS011;38809;53.300;6.614;2022-11-20T14:05:40;4.82;;;3.50;;
52942;SDS011;38809;53.300;6.614;2022-11-20T14:08:20;6.47;;;3.67;;
52942;SDS011;38809;53.300;6.614;2022-11-20T14:11:24;4.85;;;3.65;;
52942;SDS011;38809;53.300;6.614;2022-11-20T14:16:26;5.07;;;3.42;;
52942;SDS011;38809;53.300;6.614;2022-11-20T14:18:53;5.03;;;3.45;;
52942;SDS011;38809;53.300;6.614;2022-11-20T14:21:27;4.80;;;3.28;;
52942;SDS011;38809;53.300;6.614;2022-11-20T14:24:06;5.90;;;3.60;;
52942;SDS011;38809;53.300;6.614;2022-11-20T14:26:35;5.35;;;3.30;;
52942;SDS011;38809;53.300;6.614;2022-11-20T14:29:11;5.38;;;3.65;;
52942;SDS011;38809;53.300;6.614;2022-11-20T14:31:51;4.68;;;3.25;;
52942;SDS011;38809;53.300;6.614;2022-11-20T14:34:20;5.18;;;3.58;;
52942;SDS011;38809;53.300;6.614;2022-11-20T14:36:48;6.13;;;4.07;;
52942;SDS011;38809;53.300;6.614;2022-11-20T14:39:22;5.38;;;3.95;;
52942;SDS011;38809;53.300;6.614;2022-11-20T14:41:52;7.22;;;4.15;;
52942;SDS011;38809;53.300;6.614;2022-11-20T14:44:19;5.70;;;4.10;;
52942;SDS011;38809;53.300;6.614;2022-11-20T14:46:51;5.38;;;4.10;;
52942;SDS011;38809;53.300;6.614;2022-11-20T14:49:18;5.20;;;3.72;;
52942;SDS011;38809;53.300;6.614;2022-11-20T14:51:44;6.75;;;4.22;;
52942;SDS011;38809;53.300;6.614;2022-11-20T14:56:41;7.22;;;4.60;;
52942;SDS011;38809;53.300;6.614;2022-11-20T14:59:22;6.00;;;4.35;;
52942;SDS011;38809;53.300;6.614;2022-11-20T15:01:56;7.18;;;4.70;;
52942;SDS011;38809;53.300;6.614;2022-11-20T15:04:24;7.07;;;4.80;;
52942;SDS011;38809;53.300;6.614;2022-11-20T15:06:50;6.28;;;4.55;;
52942;SDS011;38809;53.300;6.614;2022-11-20T15:09:21;7.10;;;4.88;;
52942;SDS011;38809;53.300;6.614;2022-11-20T15:12:00;7.35;;;4.63;;
52942;SDS011;38809;53.300;6.614;2022-11-20T15:14:27;7.18;;;4.60;;
52942;SDS011;38809;53.300;6.614;2022-11-20T15:16:55;7.15;;;4.82;;
52942;SDS011;38809;53.300;6.614;2022-11-20T15:19:21;7.65;;;4.85;;
52942;SDS011;38809;53.300;6.614;2022-11-20T15:21:49;7.28;;;4.95;;
52942;SDS011;38809;53.300;6.614;2022-11-20T15:24:15;7.15;;;4.63;;
52942;SDS011;38809;53.300;6.614;2022-11-20T15:26:41;6.40;;;4.32;;
52942;SDS011;38809;53.300;6.614;2022-11-20T15:29:08;7.25;;;4.65;;
52942;SDS011;38809;53.300;6.614;2022-11-20T15:31:36;7.20;;;4.82;;
52942;SDS011;38809;53.300;6.614;2022-11-20T15:34:09;7.18;;;4.78;;
52942;SDS011;38809;53.300;6.614;2022-11-20T15:36:42;7.38;;;4.82;;
52942;SDS011;38809;53.300;6.614;2022-11-20T15:39:08;7.15;;;5.00;;
52942;SDS011;38809;53.300;6.614;2022-11-20T15:44:00;6.95;;;4.40;;
52942;SDS011;38809;53.300;6.614;2022-11-20T15:46:27;7.63;;;4.70;;
52942;SDS011;38809;53.300;6.614;2022-11-20T15:48:55;6.30;;;4.72;;
52942;SDS011;38809;53.300;6.614;2022-11-20T15:51:35;7.97;;;5.00;;
52942;SDS011;38809;53.300;6.614;2022-11-20T15:54:12;9.98;;;5.47;;
52942;SDS011;38809;53.300;6.614;2022-11-20T15:56:40;7.95;;;5.43;;
52942;SDS011;38809;53.300;6.614;2022-11-20T15:59:05;8.33;;;5.50;;
52942;SDS011;38809;53.300;6.614;2022-11-20T16:01:32;7.18;;;4.78;;
52942;SDS011;38809;53.300;6.614;2022-11-20T16:03:57;8.60;;;5.32;;
52942;SDS011;38809;53.300;6.614;2022-11-20T16:06:24;7.70;;;5.30;;
52942;SDS011;38809;53.300;6.614;2022-11-20T16:08:50;7.80;;;5.50;;
52942;SDS011;38809;53.300;6.614;2022-11-20T16:11:16;10.53;;;5.70;;
52942;SDS011;38809;53.300;6.614;2022-11-20T16:13:42;8.85;;;6.38;;
52942;SDS011;38809;53.300;6.614;2022-11-20T16:16:31;7.85;;;5.60;;
52942;SDS011;38809;53.300;6.614;2022-11-20T16:18:59;9.18;;;5.97;;
52942;SDS011;38809;53.300;6.614;2022-11-20T16:21:25;9.32;;;6.00;;
52942;SDS011;38809;53.300;6.614;2022-11-20T16:23:58;8.50;;;5.45;;
52942;SDS011;38809;53.300;6.614;2022-11-20T16:26:25;9.10;;;5.88;;
52942;SDS011;38809;53.300;6.614;2022-11-20T16:28:50;8.32;;;5.50;;
52942;SDS011;38809;53.300;6.614;2022-11-20T16:31:17;8.73;;;5.43;;
52942;SDS011;38809;53.300;6.614;2022-11-20T16:33:50;8.85;;;5.70;;
52942;SDS011;38809;53.300;6.614;2022-11-20T16:36:18;10.05;;;6.22;;
52942;SDS011;38809;53.300;6.614;2022-11-20T16:38:45;8.35;;;6.18;;
52942;SDS011;38809;53.300;6.614;2022-11-20T16:41:13;9.00;;;6.20;;
52942;SDS011;38809;53.300;6.614;2022-11-20T16:46:16;8.40;;;5.75;;
52942;SDS011;38809;53.300;6.614;2022-11-20T16:48:43;9.55;;;5.90;;
52942;SDS011;38809;53.300;6.614;2022-11-20T16:51:09;9.97;;;6.10;;
52942;SDS011;38809;53.300;6.614;2022-11-20T16:53:37;8.88;;;6.13;;
52942;SDS011;38809;53.300;6.614;2022-11-20T16:58:34;9.73;;;6.30;;
52942;SDS011;38809;53.300;6.614;2022-11-20T17:01:06;11.43;;;6.37;;
52942;SDS011;38809;53.300;6.614;2022-11-20T17:03:35;9.77;;;6.43;;
52942;SDS011;38809;53.300;6.614;2022-11-20T17:06:09;9.05;;;5.55;;
52942;SDS011;38809;53.300;6.614;2022-11-20T17:08:38;9.40;;;6.03;;
52942;SDS011;38809;53.300;6.614;2022-11-20T17:11:05;9.07;;;5.88;;
52942;SDS011;38809;53.300;6.614;2022-11-20T17:13:35;9.15;;;5.88;;
52942;SDS011;38809;53.300;6.614;2022-11-20T17:16:09;9.73;;;5.68;;
52942;SDS011;38809;53.300;6.614;2022-11-20T17:18:36;11.18;;;6.53;;
52942;SDS011;38809;53.300;6.614;2022-11-20T17:21:02;8.23;;;6.00;;